McCaulley, Texas
Current Conditions -  °F | °C
As of 8:35 AM on Thursday 23 Oct 2014 (Local Time) from KSWW Reporting Station
Clear Clear  
Wind Chill: 61°   Ceiling: Unl
Heat Index: 61°   Visibility: 10mi
Dew Point: 57°   Wind: 9mph
Humidity: 87%   Direction: 190°S
Pressure: 30.16"   Gusts: NA
Location:  32.78°N, 100.21°W
Report Text: KSWW 231335Z AUTO 19008KT 10SM CLR 16/14 A3016 RMK AO2 T01600138
Loading
Personal Weather Stations






























Interactive Weather Map
Tropical Storm Tracking
New forecast layout! Learn more

10-Day Weather Forecast

Advertisements
Track Severe Weather on mobile